sensor_id;sensor_type;location;lat;lon;timestamp;P1;durP1;ratioP1;P2;durP2;ratioP2
10299;SDS011;5195;48.562;9.192;2023-11-21T00:01:52;5.80;;;3.10;;
10299;SDS011;5195;48.562;9.192;2023-11-21T00:04:28;4.00;;;2.20;;
10299;SDS011;5195;48.562;9.192;2023-11-21T00:07:04;5.28;;;2.60;;
10299;SDS011;5195;48.562;9.192;2023-11-21T00:09:41;4.07;;;2.50;;
10299;SDS011;5195;48.562;9.192;2023-11-21T00:12:17;6.33;;;2.30;;
10299;SDS011;5195;48.562;9.192;2023-11-21T00:14:53;5.55;;;2.45;;
10299;SDS011;5195;48.562;9.192;2023-11-21T00:17:29;5.50;;;1.90;;
10299;SDS011;5195;48.562;9.192;2023-11-21T00:20:05;1.97;;;1.63;;
10299;SDS011;5195;48.562;9.192;2023-11-21T00:22:40;3.35;;;2.17;;
10299;SDS011;5195;48.562;9.192;2023-11-21T00:25:17;3.77;;;1.70;;
10299;SDS011;5195;48.562;9.192;2023-11-21T00:27:53;6.27;;;2.27;;
10299;SDS011;5195;48.562;9.192;2023-11-21T00:30:29;4.17;;;2.03;;
10299;SDS011;5195;48.562;9.192;2023-11-21T00:33:04;4.27;;;1.43;;
10299;SDS011;5195;48.562;9.192;2023-11-21T00:35:40;5.72;;;2.10;;
10299;SDS011;5195;48.562;9.192;2023-11-21T00:38:16;4.83;;;1.70;;
10299;SDS011;5195;48.562;9.192;2023-11-21T00:40:52;4.10;;;2.10;;
10299;SDS011;5195;48.562;9.192;2023-11-21T00:43:28;4.80;;;1.87;;
10299;SDS011;5195;48.562;9.192;2023-11-21T00:46:06;2.73;;;1.37;;
10299;SDS011;5195;48.562;9.192;2023-11-21T00:48:42;3.50;;;1.77;;
10299;SDS011;5195;48.562;9.192;2023-11-21T00:51:18;3.62;;;1.73;;
10299;SDS011;5195;48.562;9.192;2023-11-21T00:53:53;3.50;;;1.83;;
10299;SDS011;5195;48.562;9.192;2023-11-21T00:56:30;3.60;;;1.87;;
10299;SDS011;5195;48.562;9.192;2023-11-21T00:59:05;2.70;;;1.65;;
10299;SDS011;5195;48.562;9.192;2023-11-21T01:01:41;3.57;;;1.77;;
10299;SDS011;5195;48.562;9.192;2023-11-21T01:04:16;2.37;;;1.30;;
10299;SDS011;5195;48.562;9.192;2023-11-21T01:06:52;3.07;;;1.63;;
10299;SDS011;5195;48.562;9.192;2023-11-21T01:09:28;3.33;;;1.60;;
10299;SDS011;5195;48.562;9.192;2023-11-21T01:12:05;2.10;;;1.10;;
10299;SDS011;5195;48.562;9.192;2023-11-21T01:14:40;2.42;;;1.50;;
10299;SDS011;5195;48.562;9.192;2023-11-21T01:17:17;3.67;;;1.73;;
10299;SDS011;5195;48.562;9.192;2023-11-21T01:19:53;4.23;;;1.60;;
10299;SDS011;5195;48.562;9.192;2023-11-21T01:22:29;4.10;;;1.37;;
10299;SDS011;5195;48.562;9.192;2023-11-21T01:25:04;2.87;;;1.60;;
10299;SDS011;5195;48.562;9.192;2023-11-21T01:27:40;3.20;;;1.70;;
10299;SDS011;5195;48.562;9.192;2023-11-21T01:30:16;4.93;;;1.60;;
10299;SDS011;5195;48.562;9.192;2023-11-21T01:32:53;4.40;;;1.40;;
10299;SDS011;5195;48.562;9.192;2023-11-21T01:35:29;3.12;;;1.70;;
10299;SDS011;5195;48.562;9.192;2023-11-21T01:38:04;3.47;;;1.73;;
10299;SDS011;5195;48.562;9.192;2023-11-21T01:40:39;3.23;;;1.63;;
10299;SDS011;5195;48.562;9.192;2023-11-21T01:43:15;3.70;;;1.33;;
10299;SDS011;5195;48.562;9.192;2023-11-21T01:45:57;3.63;;;1.33;;
10299;SDS011;5195;48.562;9.192;2023-11-21T01:48:32;4.67;;;1.47;;
10299;SDS011;5195;48.562;9.192;2023-11-21T01:51:08;4.72;;;1.55;;
10299;SDS011;5195;48.562;9.192;2023-11-21T01:53:43;3.00;;;1.70;;
10299;SDS011;5195;48.562;9.192;2023-11-21T01:56:19;2.73;;;1.20;;
10299;SDS011;5195;48.562;9.192;2023-11-21T01:58:55;3.35;;;1.80;;
10299;SDS011;5195;48.562;9.192;2023-11-21T02:01:31;2.67;;;1.80;;
10299;SDS011;5195;48.562;9.192;2023-11-21T02:04:07;4.20;;;1.65;;
10299;SDS011;5195;48.562;9.192;2023-11-21T02:06:43;1.13;;;1.00;;
10299;SDS011;5195;48.562;9.192;2023-11-21T02:09:22;2.90;;;1.40;;
10299;SDS011;5195;48.562;9.192;2023-11-21T02:11:54;2.47;;;1.58;;
10299;SDS011;5195;48.562;9.192;2023-11-21T02:14:29;1.43;;;1.33;;
10299;SDS011;5195;48.562;9.192;2023-11-21T02:17:06;4.67;;;1.20;;
10299;SDS011;5195;48.562;9.192;2023-11-21T02:19:41;2.55;;;1.65;;
10299;SDS011;5195;48.562;9.192;2023-11-21T02:22:17;4.87;;;1.33;;
10299;SDS011;5195;48.562;9.192;2023-11-21T02:24:53;2.27;;;1.33;;
10299;SDS011;5195;48.562;9.192;2023-11-21T02:27:29;1.20;;;1.00;;
10299;SDS011;5195;48.562;9.192;2023-11-21T02:30:05;2.67;;;1.27;;
10299;SDS011;5195;48.562;9.192;2023-11-21T02:32:42;1.63;;;1.07;;
10299;SDS011;5195;48.562;9.192;2023-11-21T02:35:18;1.37;;;1.10;;
10299;SDS011;5195;48.562;9.192;2023-11-21T02:37:53;1.00;;;0.80;;
10299;SDS011;5195;48.562;9.192;2023-11-21T02:40:29;1.60;;;1.17;;
10299;SDS011;5195;48.562;9.192;2023-11-21T02:43:04;3.45;;;1.40;;
10299;SDS011;5195;48.562;9.192;2023-11-21T02:45:40;0.93;;;0.93;;
10299;SDS011;5195;48.562;9.192;2023-11-21T02:48:16;3.17;;;1.10;;
10299;SDS011;5195;48.562;9.192;2023-11-21T02:50:51;1.53;;;1.10;;
10299;SDS011;5195;48.562;9.192;2023-11-21T02:53:27;1.58;;;1.00;;
10299;SDS011;5195;48.562;9.192;2023-11-21T02:56:03;2.30;;;1.00;;
10299;SDS011;5195;48.562;9.192;2023-11-21T02:58:42;1.13;;;0.70;;
10299;SDS011;5195;48.562;9.192;2023-11-21T03:01:18;2.37;;;0.95;;
10299;SDS011;5195;48.562;9.192;2023-11-21T03:03:53;3.17;;;0.87;;
10299;SDS011;5195;48.562;9.192;2023-11-21T03:06:29;1.98;;;0.80;;
10299;SDS011;5195;48.562;9.192;2023-11-21T03:09:04;1.12;;;0.70;;
10299;SDS011;5195;48.562;9.192;2023-11-21T03:11:41;1.43;;;0.80;;
10299;SDS011;5195;48.562;9.192;2023-11-21T03:14:17;0.98;;;0.80;;
10299;SDS011;5195;48.562;9.192;2023-11-21T03:16:52;1.50;;;0.80;;
10299;SDS011;5195;48.562;9.192;2023-11-21T03:19:28;1.83;;;0.80;;
10299;SDS011;5195;48.562;9.192;2023-11-21T03:22:03;2.80;;;0.97;;
10299;SDS011;5195;48.562;9.192;2023-11-21T03:24:40;1.13;;;0.70;;
10299;SDS011;5195;48.562;9.192;2023-11-21T03:27:16;0.93;;;0.63;;
10299;SDS011;5195;48.562;9.192;2023-11-21T03:29:52;1.40;;;0.88;;
10299;SDS011;5195;48.562;9.192;2023-11-21T03:32:27;0.50;;;0.50;;
10299;SDS011;5195;48.562;9.192;2023-11-21T03:35:03;0.70;;;0.47;;
10299;SDS011;5195;48.562;9.192;2023-11-21T03:37:39;1.20;;;0.70;;
10299;SDS011;5195;48.562;9.192;2023-11-21T03:40:14;0.60;;;0.50;;
10299;SDS011;5195;48.562;9.192;2023-11-21T03:42:50;1.33;;;0.90;;
10299;SDS011;5195;48.562;9.192;2023-11-21T03:45:25;0.80;;;0.50;;
10299;SDS011;5195;48.562;9.192;2023-11-21T03:48:01;1.37;;;0.40;;
10299;SDS011;5195;48.562;9.192;2023-11-21T03:50:37;0.50;;;0.45;;
10299;SDS011;5195;48.562;9.192;2023-11-21T03:53:12;0.97;;;0.50;;
10299;SDS011;5195;48.562;9.192;2023-11-21T03:55:48;1.07;;;0.67;;
10299;SDS011;5195;48.562;9.192;2023-11-21T03:58:24;0.70;;;0.70;;
10299;SDS011;5195;48.562;9.192;2023-11-21T04:01:00;1.03;;;0.50;;
10299;SDS011;5195;48.562;9.192;2023-11-21T04:03:35;0.70;;;0.50;;
10299;SDS011;5195;48.562;9.192;2023-11-21T04:06:11;0.50;;;0.50;;
10299;SDS011;5195;48.562;9.192;2023-11-21T04:08:46;2.17;;;0.50;;
10299;SDS011;5195;48.562;9.192;2023-11-21T04:11:22;1.10;;;0.47;;
10299;SDS011;5195;48.562;9.192;2023-11-21T04:13:58;0.68;;;0.50;;
10299;SDS011;5195;48.562;9.192;2023-11-21T04:16:33;2.83;;;0.60;;
10299;SDS011;5195;48.562;9.192;2023-11-21T04:19:09;1.70;;;0.40;;
10299;SDS011;5195;48.562;9.192;2023-11-21T04:21:44;0.40;;;0.40;;
10299;SDS011;5195;48.562;9.192;2023-11-21T04:24:20;2.93;;;0.60;;
10299;SDS011;5195;48.562;9.192;2023-11-21T04:26:56;0.32;;;0.32;;
10299;SDS011;5195;48.562;9.192;2023-11-21T04:29:31;0.50;;;0.30;;
10299;SDS011;5195;48.562;9.192;2023-11-21T04:32:07;0.90;;;0.40;;
10299;SDS011;5195;48.562;9.192;2023-11-21T04:34:43;2.33;;;0.30;;
10299;SDS011;5195;48.562;9.192;2023-11-21T04:37:19;1.98;;;0.50;;
10299;SDS011;5195;48.562;9.192;2023-11-21T04:39:54;0.47;;;0.33;;
10299;SDS011;5195;48.562;9.192;2023-11-21T04:42:30;0.77;;;0.37;;
10299;SDS011;5195;48.562;9.192;2023-11-21T04:45:06;0.40;;;0.40;;
10299;SDS011;5195;48.562;9.192;2023-11-21T04:47:44;0.40;;;0.40;;
10299;SDS011;5195;48.562;9.192;2023-11-21T04:50:20;0.50;;;0.50;;
10299;SDS011;5195;48.562;9.192;2023-11-21T04:52:55;1.00;;;0.70;;
10299;SDS011;5195;48.562;9.192;2023-11-21T04:55:31;1.15;;;0.60;;
10299;SDS011;5195;48.562;9.192;2023-11-21T04:58:07;0.50;;;0.50;;
10299;SDS011;5195;48.562;9.192;2023-11-21T05:00:43;0.80;;;0.57;;
10299;SDS011;5195;48.562;9.192;2023-11-21T05:03:18;0.70;;;0.50;;
10299;SDS011;5195;48.562;9.192;2023-11-21T05:05:54;0.40;;;0.37;;
10299;SDS011;5195;48.562;9.192;2023-11-21T05:08:30;0.30;;;0.30;;
10299;SDS011;5195;48.562;9.192;2023-11-21T05:11:06;0.50;;;0.40;;
10299;SDS011;5195;48.562;9.192;2023-11-21T05:13:41;0.50;;;0.50;;
10299;SDS011;5195;48.562;9.192;2023-11-21T05:16:17;0.40;;;0.30;;
10299;SDS011;5195;48.562;9.192;2023-11-21T05:18:53;0.40;;;0.40;;
10299;SDS011;5195;48.562;9.192;2023-11-21T05:21:28;0.30;;;0.30;;
10299;SDS011;5195;48.562;9.192;2023-11-21T05:24:04;1.35;;;0.40;;
10299;SDS011;5195;48.562;9.192;2023-11-21T05:26:40;0.60;;;0.50;;
10299;SDS011;5195;48.562;9.192;2023-11-21T05:29:15;0.40;;;0.35;;
10299;SDS011;5195;48.562;9.192;2023-11-21T05:31:51;0.40;;;0.33;;
10299;SDS011;5195;48.562;9.192;2023-11-21T05:34:26;0.30;;;0.30;;
10299;SDS011;5195;48.562;9.192;2023-11-21T05:37:04;0.40;;;0.37;;
10299;SDS011;5195;48.562;9.192;2023-11-21T05:39:40;0.70;;;0.50;;
10299;SDS011;5195;48.562;9.192;2023-11-21T05:42:15;0.40;;;0.40;;
10299;SDS011;5195;48.562;9.192;2023-11-21T05:44:51;0.93;;;0.60;;
10299;SDS011;5195;48.562;9.192;2023-11-21T05:47:26;0.50;;;0.40;;
10299;SDS011;5195;48.562;9.192;2023-11-21T05:50:04;1.27;;;0.65;;
10299;SDS011;5195;48.562;9.192;2023-11-21T05:52:44;0.60;;;0.50;;
10299;SDS011;5195;48.562;9.192;2023-11-21T05:55:19;1.17;;;1.03;;
10299;SDS011;5195;48.562;9.192;2023-11-21T05:57:55;1.12;;;0.50;;
10299;SDS011;5195;48.562;9.192;2023-11-21T06:00:31;0.80;;;0.80;;
10299;SDS011;5195;48.562;9.192;2023-11-21T06:03:06;3.23;;;0.63;;
10299;SDS011;5195;48.562;9.192;2023-11-21T06:05:42;1.37;;;1.37;;
10299;SDS011;5195;48.562;9.192;2023-11-21T06:08:17;1.13;;;0.80;;
10299;SDS011;5195;48.562;9.192;2023-11-21T06:10:54;1.47;;;0.60;;
10299;SDS011;5195;48.562;9.192;2023-11-21T06:13:29;0.70;;;0.70;;
10299;SDS011;5195;48.562;9.192;2023-11-21T06:16:06;1.70;;;0.60;;
